Terminal Aerodrome Forecast
Issued by NWS

Home | Current Version | Previous Version | Text Only | Print | Product List | Glossary On
Versions: 1 2 3 4 5 6 7 8 9 10 11 12 13 14 15 16
321
FTUS42 KMHX 302338
TAFPGV
TAF
KPGV 302338Z 0100/0124 18008KT P6SM FEW250
     FM010600 19010KT P6SM FEW006 SCT045
      TEMPO 0108/0112 OVC015
     FM011500 20015G23KT P6SM SCT050
      AMD LTD TO CLD VIS AND WIND=

USA.gov is the U.S. government's official web portal to all federal, state and local government web resources and services.